Terminal Aerodrome Forecast
Issued by NWS

Home | Current Version | Previous Version | Text Only | Print | Product List | Glossary On
Versions: 1 2 3 4 5 6 7 8 9 10 11 12
715
FTUS44 KLIX 251140
TAFMCB
TAF
KMCB 251140Z 2512/2612 05005KT P6SM SKC
     FM251800 07006KT P6SM VCSH SCT040 SCT090
     FM260000 00000KT P6SM FEW040 SCT110
     FM261100 VRB03KT 3SM BR FEW015 SCT035=

USA.gov is the U.S. government's official web portal to all federal, state and local government web resources and services.